Aviation Digital Data Service (ADDS)

Output produced by METARs form (2012 UTC 14 November 2019)
found at http://aviationweather.gov/metar/data/
 
METAR text: KCHD 141947Z 00000KT 10SM CLR 25/01 A3008
Conditions at: KCHD (CHANDLER , AZ, US) observed 1947 UTC 14 November 2019
Temperature: 25.0°C (77°F)
Dewpoint: 1.0°C (34°F) [RH = 21%]
Pressure (altimeter): 30.08 inches Hg (1018.7 mb)
Winds: calm
Visibility: 10 or more miles (16+ km)
Ceiling: at least 12,000 feet AGL
Clouds: sky clear below 12,000 feet AGL
Weather: no significant weather observed at this time

METAR text: KCHD 141847Z 00000KT 10SM CLR 23/02 A3010
Conditions at: KCHD (CHANDLER , AZ, US) observed 1847 UTC 14 November 2019
Temperature: 23.0°C (73°F)
Dewpoint: 2.0°C (36°F) [RH = 25%]
Pressure (altimeter): 30.10 inches Hg (1019.4 mb)
Winds: calm
Visibility: 10 or more miles (16+ km)
Ceiling: at least 12,000 feet AGL
Clouds: sky clear below 12,000 feet AGL
Weather: no significant weather observed at this time

METAR text: KCHD 141747Z 00000KT 10SM CLR 21/02 A3012
Conditions at: KCHD (CHANDLER , AZ, US) observed 1747 UTC 14 November 2019
Temperature: 21.0°C (70°F)
Dewpoint: 2.0°C (36°F) [RH = 28%]
Pressure (altimeter): 30.12 inches Hg (1020.1 mb)
Winds: calm
Visibility: 10 or more miles (16+ km)
Ceiling: at least 12,000 feet AGL
Clouds: sky clear below 12,000 feet AGL
Weather: no significant weather observed at this time

METAR text: KCHD 141647Z 00000KT 10SM CLR 18/02 A3013
Conditions at: KCHD (CHANDLER , AZ, US) observed 1647 UTC 14 November 2019
Temperature: 18.0°C (64°F)
Dewpoint: 2.0°C (36°F) [RH = 34%]
Pressure (altimeter): 30.13 inches Hg (1020.4 mb)
Winds: calm
Visibility: 10 or more miles (16+ km)
Ceiling: at least 12,000 feet AGL
Clouds: sky clear below 12,000 feet AGL
Weather: no significant weather observed at this time

METAR text: KCHD 141547Z VRB04KT 10SM CLR 16/03 A3012
Conditions at: KCHD (CHANDLER , AZ, US) observed 1547 UTC 14 November 2019
Temperature: 16.0°C (61°F)
Dewpoint: 3.0°C (37°F) [RH = 42%]
Pressure (altimeter): 30.12 inches Hg (1020.1 mb)
Winds: variable direction winds at 5 MPH (4 knots; 2.1 m/s)
Visibility: 10 or more miles (16+ km)
Ceiling: at least 12,000 feet AGL
Clouds: sky clear below 12,000 feet AGL
Weather: no significant weather observed at this time

METAR text: KCHD 141447Z 00000KT 10SM CLR 11/03 A3009
Conditions at: KCHD (CHANDLER , AZ, US) observed 1447 UTC 14 November 2019
Temperature: 11.0°C (52°F)
Dewpoint: 3.0°C (37°F) [RH = 58%]
Pressure (altimeter): 30.09 inches Hg (1019.0 mb)
Winds: calm
Visibility: 10 or more miles (16+ km)
Ceiling: at least 12,000 feet AGL
Clouds: sky clear below 12,000 feet AGL
Weather: no significant weather observed at this time

METAR text: KCHD 141347Z 00000KT 10SM CLR 10/01 A3007
Conditions at: KCHD (CHANDLER , AZ, US) observed 1347 UTC 14 November 2019
Temperature: 10.0°C (50°F)
Dewpoint: 1.0°C (34°F) [RH = 53%]
Pressure (altimeter): 30.07 inches Hg (1018.4 mb)
Winds: calm
Visibility: 10 or more miles (16+ km)
Ceiling: at least 12,000 feet AGL
Clouds: sky clear below 12,000 feet AGL
Weather: no significant weather observed at this time

METAR text: KCHD 141247Z 08003KT 10SM CLR 10/02 A3004
Conditions at: KCHD (CHANDLER , AZ, US) observed 1247 UTC 14 November 2019
Temperature: 10.0°C (50°F)
Dewpoint: 2.0°C (36°F) [RH = 57%]
Pressure (altimeter): 30.04 inches Hg (1017.4 mb)
Winds: from the E (80 degrees) at 3 MPH (3 knots; 1.5 m/s)
Visibility: 10 or more miles (16+ km)
Ceiling: at least 12,000 feet AGL
Clouds: sky clear below 12,000 feet AGL
Weather: no significant weather observed at this time